Tilleda, Wisconsin
Current Conditions -  °F | °C
As of 5:15 AM on Wednesday 26 Nov 2014 (Local Time) from KCLI Reporting Station
Overcast Overcast  
Wind Chill: 14°   Ceiling: 1700
Heat Index: 14°   Visibility: 10mi
Dew Point: 12°   Wind: 0mph
Humidity: 93%   Direction: NA
Pressure: 30.15"   Gusts: NA
Location:  44.82°N, 88.91°W
Report Text: KCLI 261115Z AUTO 00000KT 10SM OVC017 M10/M11 A3015 RMK AO2
Loading
Personal Weather Stations






























Interactive Weather Map New forecast layout! Learn more

10-Day Weather Forecast

Advertisements
Track Severe Weather on mobile